Time;durP1;ratioP1;P1;durP2;ratioP2;P2;SDS_P1;SDS_P2;PMS_P1;PMS_P2;Temp;Humidity;BMP_temperature;BMP_pressure;BME280_temperature;BME280_humidity;BME280_pressure;Samples;Min_cycle;Max_cycle;Signal;HPM_P1;HPM_P2
2022/02/20 00:02:09;;;;;;;7.63;4.00;;;;;;;;;;5027689;28;20100;-73
2022/02/20 00:04:34;;;;;;;9.83;4.53;;;;;;;;;;5027576;28;20450;-73
2022/02/20 00:06:59;;;;;;;11.63;3.97;;;;;;;;;;5022258;28;20029;-73
2022/02/20 00:09:24;;;;;;;10.03;4.37;;;;;;;;;;5027158;28;20034;-74
2022/02/20 00:11:50;;;;;;;6.67;3.63;;;;;;;;;;5024837;28;20033;-74
2022/02/20 00:14:15;;;;;;;7.33;3.80;;;;;;;;;;5035416;28;20359;-74
2022/02/20 00:16:40;;;;;;;7.30;3.67;;;;;;;;;;5029241;28;20041;-74
2022/02/20 00:19:05;;;;;;;7.10;3.50;;;;;;;;;;5024217;28;20498;-74
2022/02/20 00:21:31;;;;;;;8.33;3.60;;;;;;;;;;5024380;28;20574;-74
2022/02/20 00:23:56;;;;;;;7.67;3.83;;;;;;;;;;5026733;28;20049;-74
2022/02/20 00:26:22;;;;;;;8.33;3.87;;;;;;;;;;5034670;28;20032;-74
2022/02/20 00:28:47;;;;;;;10.80;3.73;;;;;;;;;;5029384;28;20451;-74
2022/02/20 00:31:12;;;;;;;6.03;3.47;;;;;;;;;;5026150;28;20025;-73
2022/02/20 00:33:37;;;;;;;7.57;4.00;;;;;;;;;;5033029;28;20029;-73
2022/02/20 00:36:03;;;;;;;7.73;3.90;;;;;;;;;;5026879;28;20334;-73
2022/02/20 00:38:28;;;;;;;8.93;3.93;;;;;;;;;;5032812;28;20039;-73
2022/02/20 00:40:53;;;;;;;7.73;4.20;;;;;;;;;;5030558;28;20029;-73
2022/02/20 00:43:19;;;;;;;7.83;3.47;;;;;;;;;;5039027;28;20500;-73
2022/02/20 00:45:44;;;;;;;5.70;3.00;;;;;;;;;;5023600;28;20428;-73
2022/02/20 00:48:10;;;;;;;10.33;3.23;;;;;;;;;;5032263;28;20029;-73
2022/02/20 00:50:35;;;;;;;9.33;3.20;;;;;;;;;;5028593;28;20055;-73
2022/02/20 00:53:00;;;;;;;6.80;3.10;;;;;;;;;;5030268;28;20123;-73
2022/02/20 00:55:26;;;;;;;8.60;3.70;;;;;;;;;;5032722;28;20025;-73
2022/02/20 00:57:52;;;;;;;8.20;3.70;;;;;;;;;;5034495;28;20028;-73
2022/02/20 01:00:18;;;;;;;6.50;3.33;;;;;;;;;;5026593;28;20033;-73
2022/02/20 01:02:43;;;;;;;10.47;3.27;;;;;;;;;;5031249;28;20484;-73
2022/02/20 01:05:09;;;;;;;5.97;2.87;;;;;;;;;;5036414;28;20332;-73
2022/02/20 01:07:35;;;;;;;7.13;3.00;;;;;;;;;;5032375;28;20818;-73
2022/02/20 01:10:00;;;;;;;6.53;3.07;;;;;;;;;;5023226;28;20229;-73
2022/02/20 01:12:26;;;;;;;7.00;3.30;;;;;;;;;;5022150;28;20041;-74
2022/02/20 01:14:51;;;;;;;5.53;2.93;;;;;;;;;;5023579;28;20025;-73
2022/02/20 01:17:16;;;;;;;5.80;2.90;;;;;;;;;;5020664;28;20091;-73
2022/02/20 01:19:42;;;;;;;7.13;3.50;;;;;;;;;;5023874;28;20068;-74
2022/02/20 01:22:08;;;;;;;6.27;3.10;;;;;;;;;;5020909;28;20037;-72
2022/02/20 01:24:33;;;;;;;6.47;2.97;;;;;;;;;;5025237;28;20080;-73
2022/02/20 01:26:59;;;;;;;6.70;3.63;;;;;;;;;;5020816;28;20029;-73
2022/02/20 01:29:24;;;;;;;7.60;4.00;;;;;;;;;;5022053;28;20095;-73
2022/02/20 01:31:51;;;;;;;8.30;4.00;;;;;;;;;;5040210;28;20409;-74
2022/02/20 01:34:16;;;;;;;8.90;3.57;;;;;;;;;;5037250;28;20312;-73
2022/02/20 01:36:41;;;;;;;8.43;3.50;;;;;;;;;;5034727;28;20028;-74
2022/02/20 01:39:07;;;;;;;8.63;4.53;;;;;;;;;;5037316;28;20656;-74
2022/02/20 01:41:32;;;;;;;10.00;4.33;;;;;;;;;;5020339;28;20300;-73
2022/02/20 01:43:58;;;;;;;9.83;4.27;;;;;;;;;;5031456;28;20232;-74
2022/02/20 01:46:23;;;;;;;9.20;4.13;;;;;;;;;;5020869;28;20025;-74
2022/02/20 01:48:48;;;;;;;8.97;4.40;;;;;;;;;;5033135;28;20032;-74
2022/02/20 01:51:14;;;;;;;11.77;4.53;;;;;;;;;;5026608;28;20029;-74
2022/02/20 01:53:40;;;;;;;8.13;3.80;;;;;;;;;;5031517;28;20120;-74
2022/02/20 01:56:05;;;;;;;8.87;4.30;;;;;;;;;;5030473;28;20321;-74
2022/02/20 01:58:30;;;;;;;10.97;4.43;;;;;;;;;;5027340;28;20063;-74
2022/02/20 02:00:55;;;;;;;7.33;3.70;;;;;;;;;;5034201;28;20033;-74
2022/02/20 02:03:21;;;;;;;10.13;3.83;;;;;;;;;;5028749;28;20029;-74
2022/02/20 02:05:46;;;;;;;9.37;4.20;;;;;;;;;;5039838;28;20440;-75
2022/02/20 02:08:12;;;;;;;10.20;3.97;;;;;;;;;;5037002;28;20025;-74
2022/02/20 02:10:37;;;;;;;6.33;3.00;;;;;;;;;;5029232;28;20025;-75
2022/02/20 02:13:03;;;;;;;8.37;3.87;;;;;;;;;;5037382;28;20075;-74
2022/02/20 02:15:28;;;;;;;7.17;3.83;;;;;;;;;;5019472;28;20156;-74
2022/02/20 02:17:54;;;;;;;8.30;4.07;;;;;;;;;;5033218;28;20277;-73
2022/02/20 02:20:19;;;;;;;7.63;3.53;;;;;;;;;;5034531;28;20337;-73
2022/02/20 02:22:44;;;;;;;9.23;3.17;;;;;;;;;;5026739;28;20240;-74
2022/02/20 02:25:09;;;;;;;4.60;2.30;;;;;;;;;;5020145;28;20591;-74
2022/02/20 02:27:35;;;;;;;7.23;2.77;;;;;;;;;;5023459;28;20605;-74
2022/02/20 02:30:05;;;;;;;6.67;3.23;;;;;;;;;;5019974;28;20017;-74
2022/02/20 02:32:30;;;;;;;6.30;3.10;;;;;;;;;;5032890;28;20020;-73
2022/02/20 02:34:55;;;;;;;5.17;2.67;;;;;;;;;;5019840;28;20021;-74
2022/02/20 02:37:22;;;;;;;7.77;3.10;;;;;;;;;;5034582;28;20047;-74
2022/02/20 02:39:47;;;;;;;6.50;3.27;;;;;;;;;;5030975;28;20098;-74
2022/02/20 02:42:13;;;;;;;8.37;3.30;;;;;;;;;;5019355;28;20030;-74
2022/02/20 02:44:38;;;;;;;8.73;3.37;;;;;;;;;;5029720;28;20021;-74
2022/02/20 02:47:03;;;;;;;6.87;3.03;;;;;;;;;;5024946;28;20313;-74
2022/02/20 02:49:28;;;;;;;6.67;3.07;;;;;;;;;;5029529;28;20033;-73
2022/02/20 02:51:54;;;;;;;5.23;2.43;;;;;;;;;;5024406;28;20415;-74
2022/02/20 02:54:20;;;;;;;7.27;3.80;;;;;;;;;;5030195;28;20021;-74
2022/02/20 02:56:46;;;;;;;7.60;3.67;;;;;;;;;;5038329;28;20021;-74
2022/02/20 02:59:12;;;;;;;6.80;3.30;;;;;;;;;;5036470;28;20377;-73
2022/02/20 03:01:37;;;;;;;10.87;3.30;;;;;;;;;;5026867;28;20043;-74
2022/02/20 03:04:02;;;;;;;7.77;3.20;;;;;;;;;;5031065;28;20041;-73
2022/02/20 03:06:28;;;;;;;6.03;2.60;;;;;;;;;;5019187;28;20367;-73
2022/02/20 03:08:53;;;;;;;7.73;3.07;;;;;;;;;;5029988;28;20108;-73
2022/02/20 03:11:18;;;;;;;6.03;2.70;;;;;;;;;;5019202;28;20033;-74
2022/02/20 03:13:43;;;;;;;6.83;2.73;;;;;;;;;;5028934;28;20036;-74
2022/02/20 03:16:09;;;;;;;7.60;2.83;;;;;;;;;;5030307;28;20032;-73
2022/02/20 03:18:34;;;;;;;8.00;2.17;;;;;;;;;;5027468;28;20063;-74
2022/02/20 03:21:01;;;;;;;5.70;2.60;;;;;;;;;;5025058;28;20087;-73
2022/02/20 03:23:26;;;;;;;5.30;2.10;;;;;;;;;;5026565;28;20072;-74
2022/02/20 03:25:51;;;;;;;6.47;2.80;;;;;;;;;;5018688;28;20473;-74
2022/02/20 03:28:17;;;;;;;6.47;2.70;;;;;;;;;;5023941;28;20146;-73
2022/02/20 03:30:42;;;;;;;7.03;3.20;;;;;;;;;;5018807;28;20152;-72
2022/02/20 03:33:08;;;;;;;5.43;2.53;;;;;;;;;;5031757;28;20036;-72
2022/02/20 03:35:33;;;;;;;5.63;2.50;;;;;;;;;;5030122;28;20110;-72
2022/02/20 03:37:58;;;;;;;6.53;2.90;;;;;;;;;;5037923;28;20323;-72
2022/02/20 03:40:24;;;;;;;7.83;3.07;;;;;;;;;;5036881;28;20045;-72
2022/02/20 03:42:49;;;;;;;6.50;2.93;;;;;;;;;;5027064;28;20477;-72
2022/02/20 03:45:14;;;;;;;6.37;2.83;;;;;;;;;;5018433;28;20014;-72
2022/02/20 03:47:40;;;;;;;7.67;3.47;;;;;;;;;;5020811;28;20029;-72
2022/02/20 03:50:05;;;;;;;6.50;3.03;;;;;;;;;;5032674;28;20507;-72
2022/02/20 03:52:31;;;;;;;7.17;3.10;;;;;;;;;;5028017;28;20021;-72
2022/02/20 03:54:56;;;;;;;7.70;3.20;;;;;;;;;;5028352;28;20097;-72
2022/02/20 03:57:22;;;;;;;7.17;2.87;;;;;;;;;;5027323;28;20028;-72
2022/02/20 03:59:47;;;;;;;5.90;2.80;;;;;;;;;;5031005;28;20668;-72
2022/02/20 04:02:13;;;;;;;6.80;2.97;;;;;;;;;;5018609;28;20109;-72
2022/02/20 04:04:39;;;;;;;7.13;2.97;;;;;;;;;;5032782;28;20049;-72
2022/02/20 04:07:04;;;;;;;6.47;2.90;;;;;;;;;;5038211;28;20074;-71
2022/02/20 04:09:29;;;;;;;7.47;3.13;;;;;;;;;;5031075;28;20413;-72
2022/02/20 04:11:54;;;;;;;7.10;3.23;;;;;;;;;;5018232;28;20025;-72
2022/02/20 04:14:20;;;;;;;6.67;3.10;;;;;;;;;;5028668;28;20056;-72
2022/02/20 04:16:45;;;;;;;6.63;2.90;;;;;;;;;;5022228;28;20041;-72
2022/02/20 04:19:10;;;;;;;6.87;2.97;;;;;;;;;;5032725;28;20024;-72
2022/02/20 04:21:36;;;;;;;6.83;2.97;;;;;;;;;;5025744;28;20029;-72
2022/02/20 04:24:01;;;;;;;5.73;2.60;;;;;;;;;;5026229;28;20029;-72
2022/02/20 04:26:27;;;;;;;6.17;2.87;;;;;;;;;;5018342;28;20021;-72
2022/02/20 04:28:52;;;;;;;6.83;2.93;;;;;;;;;;5030003;28;20025;-72
2022/02/20 04:31:20;;;;;;;5.77;2.70;;;;;;;;;;5025508;28;20033;-72
2022/02/20 04:33:46;;;;;;;6.60;2.73;;;;;;;;;;5024416;28;20486;-72
2022/02/20 04:36:11;;;;;;;6.00;2.60;;;;;;;;;;5034849;28;20039;-72
2022/02/20 04:38:37;;;;;;;6.73;2.83;;;;;;;;;;5032588;28;20413;-72
2022/02/20 04:41:02;;;;;;;6.40;3.20;;;;;;;;;;5028592;28;20028;-71
2022/02/20 04:43:27;;;;;;;6.20;2.63;;;;;;;;;;5035628;28;20087;-71
2022/02/20 04:45:52;;;;;;;7.37;3.10;;;;;;;;;;5021859;28;20021;-72
2022/02/20 04:48:18;;;;;;;6.07;3.07;;;;;;;;;;5034978;28;20033;-72
2022/02/20 04:50:44;;;;;;;6.53;2.90;;;;;;;;;;5037423;28;20397;-72
2022/02/20 04:53:09;;;;;;;7.83;3.10;;;;;;;;;;5024148;28;20032;-72
2022/02/20 04:55:34;;;;;;;6.80;2.80;;;;;;;;;;5034217;28;20190;-72
2022/02/20 04:57:59;;;;;;;6.07;2.60;;;;;;;;;;5027454;28;20056;-72
2022/02/20 05:00:25;;;;;;;5.70;2.70;;;;;;;;;;5029029;28;20100;-72
2022/02/20 05:02:50;;;;;;;6.40;2.70;;;;;;;;;;5026485;28;20246;-72
2022/02/20 05:05:15;;;;;;;5.20;2.20;;;;;;;;;;5028996;28;20313;-74
2022/02/20 05:07:40;;;;;;;6.13;2.70;;;;;;;;;;5024177;28;20025;-72
2022/02/20 05:10:06;;;;;;;6.53;2.87;;;;;;;;;;5029180;28;20033;-72
2022/02/20 05:12:31;;;;;;;5.17;2.43;;;;;;;;;;5023072;28;20067;-72
2022/02/20 05:14:56;;;;;;;5.53;2.50;;;;;;;;;;5029787;28;20120;-72
2022/02/20 05:17:22;;;;;;;5.67;2.60;;;;;;;;;;5025050;28;20052;-72
2022/02/20 05:19:47;;;;;;;5.43;2.33;;;;;;;;;;5040031;28;20134;-72
2022/02/20 05:22:12;;;;;;;6.03;2.70;;;;;;;;;;5023115;28;20568;-72
2022/02/20 05:24:37;;;;;;;6.17;2.50;;;;;;;;;;5029237;28;20057;-72
2022/02/20 05:27:03;;;;;;;6.00;2.30;;;;;;;;;;5021095;28;20397;-72
2022/02/20 05:29:28;;;;;;;6.30;2.73;;;;;;;;;;5024467;28;20643;-71
2022/02/20 05:31:53;;;;;;;7.43;2.97;;;;;;;;;;5030048;28;20132;-72
2022/02/20 05:34:19;;;;;;;7.73;2.90;;;;;;;;;;5035145;28;20040;-72
2022/02/20 05:36:44;;;;;;;6.13;2.57;;;;;;;;;;5032657;28;20021;-72
2022/02/20 05:39:09;;;;;;;5.43;2.30;;;;;;;;;;5030235;28;20108;-72
2022/02/20 05:41:35;;;;;;;6.30;2.87;;;;;;;;;;5020708;28;20425;-72
2022/02/20 05:44:00;;;;;;;6.20;2.37;;;;;;;;;;5033586;28;20146;-72
2022/02/20 05:46:25;;;;;;;5.20;2.57;;;;;;;;;;5020522;28;20021;-72
2022/02/20 05:48:50;;;;;;;5.10;2.33;;;;;;;;;;5026126;28;20414;-72
2022/02/20 05:51:16;;;;;;;3.63;1.73;;;;;;;;;;5031837;28;20029;-72
2022/02/20 05:53:41;;;;;;;4.53;2.13;;;;;;;;;;5036423;28;20025;-72
2022/02/20 05:56:07;;;;;;;3.03;1.63;;;;;;;;;;5036120;28;20493;-72
2022/02/20 05:58:32;;;;;;;5.73;1.87;;;;;;;;;;5023943;28;20025;-72
2022/02/20 06:00:57;;;;;;;6.77;2.90;;;;;;;;;;5020268;28;20022;-72
2022/02/20 06:03:23;;;;;;;4.67;1.80;;;;;;;;;;5026929;28;20119;-72
2022/02/20 06:05:48;;;;;;;5.87;2.30;;;;;;;;;;5027148;28;20208;-72
2022/02/20 06:08:14;;;;;;;7.77;3.47;;;;;;;;;;5031790;28;20055;-72
2022/02/20 06:10:39;;;;;;;8.20;3.50;;;;;;;;;;5021646;28;20029;-72
2022/02/20 06:13:04;;;;;;;8.37;3.27;;;;;;;;;;5020755;28;20544;-72
2022/02/20 06:15:30;;;;;;;6.03;2.50;;;;;;;;;;5019749;28;20022;-72
2022/02/20 06:17:56;;;;;;;7.80;3.87;;;;;;;;;;5025158;28;20025;-72
2022/02/20 06:20:21;;;;;;;7.87;3.63;;;;;;;;;;5028921;28;20225;-72
2022/02/20 06:22:46;;;;;;;10.60;3.90;;;;;;;;;;5033908;28;20109;-72
2022/02/20 06:25:11;;;;;;;9.30;3.97;;;;;;;;;;5019640;28;20536;-72
2022/02/20 06:27:36;;;;;;;11.50;4.53;;;;;;;;;;5022162;28;20064;-72
2022/02/20 06:30:03;;;;;;;9.40;4.07;;;;;;;;;;5037752;28;20239;-71
2022/02/20 06:32:28;;;;;;;9.80;3.67;;;;;;;;;;5038713;28;20082;-74
2022/02/20 06:34:53;;;;;;;10.63;3.83;;;;;;;;;;5036161;28;20734;-74
2022/02/20 06:37:19;;;;;;;10.33;4.60;;;;;;;;;;5026632;28;20029;-74
2022/02/20 06:39:45;;;;;;;10.53;3.87;;;;;;;;;;5038173;28;20025;-74
2022/02/20 06:42:13;;;;;;;8.63;3.27;;;;;;;;;;5023391;28;20105;-74
2022/02/20 06:44:38;;;;;;;9.80;3.70;;;;;;;;;;5029940;28;20017;-74
2022/02/20 06:47:04;;;;;;;10.23;3.80;;;;;;;;;;5018857;28;20041;-74
2022/02/20 06:49:29;;;;;;;7.47;3.17;;;;;;;;;;5028278;28;20273;-74
2022/02/20 06:51:54;;;;;;;9.73;3.80;;;;;;;;;;5023016;28;20062;-74
2022/02/20 06:54:19;;;;;;;7.97;3.73;;;;;;;;;;5034011;28;20390;-72
2022/02/20 06:56:45;;;;;;;9.33;3.73;;;;;;;;;;5023862;28;20061;-74
2022/02/20 06:59:10;;;;;;;6.47;2.80;;;;;;;;;;5026185;28;20102;-72
2022/02/20 07:01:35;;;;;;;10.60;3.67;;;;;;;;;;5021642;28;20035;-72
2022/02/20 07:04:01;;;;;;;7.83;3.43;;;;;;;;;;5024014;28;20050;-72
2022/02/20 07:06:26;;;;;;;6.33;2.83;;;;;;;;;;5018941;28;20029;-72
2022/02/20 07:08:52;;;;;;;6.97;3.30;;;;;;;;;;5023536;28;20029;-72
2022/02/20 07:11:17;;;;;;;10.60;3.33;;;;;;;;;;5019084;28;20025;-71
2022/02/20 07:13:42;;;;;;;5.90;2.60;;;;;;;;;;5021995;28;20337;-71
2022/02/20 07:16:08;;;;;;;7.30;2.80;;;;;;;;;;5018849;28;20554;-72
2022/02/20 07:18:33;;;;;;;6.37;3.23;;;;;;;;;;5027601;28;20107;-73
2022/02/20 07:20:58;;;;;;;9.93;3.57;;;;;;;;;;5032883;28;20339;-73
2022/02/20 07:23:23;;;;;;;7.10;3.07;;;;;;;;;;5034754;28;20029;-73
2022/02/20 07:25:49;;;;;;;7.23;3.00;;;;;;;;;;5025937;28;20161;-73
2022/02/20 07:28:14;;;;;;;7.73;3.50;;;;;;;;;;5032530;28;20029;-73
2022/02/20 07:30:39;;;;;;;10.10;4.00;;;;;;;;;;5018836;28;20305;-73
2022/02/20 07:33:05;;;;;;;7.47;2.93;;;;;;;;;;5024845;28;20029;-73
2022/02/20 07:35:35;;;;;;;10.03;3.40;;;;;;;;;;5026727;28;20090;-73
2022/02/20 07:38:00;;;;;;;6.07;2.90;;;;;;;;;;5026135;28;20048;-72
2022/02/20 07:40:27;;;;;;;7.47;2.97;;;;;;;;;;5032428;28;20029;-72
2022/02/20 07:42:53;;;;;;;6.67;2.90;;;;;;;;;;5022735;28;20266;-72
2022/02/20 07:45:23;;;;;;;7.93;3.03;;;;;;;;;;5024010;28;20045;-72
2022/02/20 07:47:59;;;;;;;7.70;3.17;;;;;;;;;;5022875;28;20446;-72
2022/02/20 07:50:27;;;;;;;7.40;3.03;;;;;;;;;;5026926;28;20600;-75
2022/02/20 07:52:52;;;;;;;10.53;3.63;;;;;;;;;;5023448;28;20099;-75
2022/02/20 07:55:17;;;;;;;10.67;3.60;;;;;;;;;;5034132;28;20033;-75
2022/02/20 07:57:43;;;;;;;10.43;3.63;;;;;;;;;;5035851;28;20025;-74
2022/02/20 08:00:09;;;;;;;6.83;3.10;;;;;;;;;;5032063;28;20124;-75
2022/02/20 08:02:34;;;;;;;10.23;3.40;;;;;;;;;;5025689;28;20116;-75
2022/02/20 08:04:59;;;;;;;9.13;3.50;;;;;;;;;;5028949;28;20053;-75
2022/02/20 08:07:25;;;;;;;7.33;3.00;;;;;;;;;;5035233;28;20029;-75
2022/02/20 08:09:51;;;;;;;10.13;3.57;;;;;;;;;;5024696;28;21700;-75
2022/02/20 08:12:17;;;;;;;7.53;3.30;;;;;;;;;;5018074;28;20502;-75
2022/02/20 08:14:43;;;;;;;8.30;3.70;;;;;;;;;;5026956;28;20045;-75
2022/02/20 08:17:08;;;;;;;9.73;3.77;;;;;;;;;;5022333;28;20034;-75
2022/02/20 08:19:33;;;;;;;12.87;3.57;;;;;;;;;;5029163;28;20453;-75
2022/02/20 08:21:58;;;;;;;9.47;3.63;;;;;;;;;;5028195;28;20491;-74
2022/02/20 08:24:24;;;;;;;11.40;4.23;;;;;;;;;;5027677;28;20580;-74
2022/02/20 08:26:49;;;;;;;10.27;3.93;;;;;;;;;;5035359;28;20362;-74
2022/02/20 08:29:20;;;;;;;11.80;3.77;;;;;;;;;;5031598;28;20459;-73
2022/02/20 08:31:46;;;;;;;8.87;3.37;;;;;;;;;;5036111;28;20128;-74
2022/02/20 08:34:11;;;;;;;9.70;3.93;;;;;;;;;;5038975;28;20111;-74
2022/02/20 08:36:36;;;;;;;8.50;3.30;;;;;;;;;;5035774;28;20098;-73
2022/02/20 08:39:02;;;;;;;10.43;3.70;;;;;;;;;;5037795;28;20067;-73
2022/02/20 08:41:27;;;;;;;8.50;3.00;;;;;;;;;;5031396;28;20512;-73
2022/02/20 08:43:52;;;;;;;8.37;3.27;;;;;;;;;;5026208;28;20624;-73
2022/02/20 08:46:18;;;;;;;11.17;4.17;;;;;;;;;;5040995;28;20174;-74
2022/02/20 08:48:45;;;;;;;12.00;4.10;;;;;;;;;;5025207;28;20311;-74
2022/02/20 08:51:10;;;;;;;9.17;4.07;;;;;;;;;;5026146;28;20033;-74
2022/02/20 08:53:37;;;;;;;11.43;3.90;;;;;;;;;;5030108;28;20516;-74
2022/02/20 08:56:03;;;;;;;9.80;2.93;;;;;;;;;;5031789;28;20486;-74
2022/02/20 08:58:29;;;;;;;12.30;5.10;;;;;;;;;;5027810;28;20416;-74
2022/02/20 09:00:55;;;;;;;10.23;4.27;;;;;;;;;;5021548;28;20028;-75
2022/02/20 09:03:21;;;;;;;10.60;4.63;;;;;;;;;;5030523;28;20518;-75
2022/02/20 09:05:46;;;;;;;12.07;4.40;;;;;;;;;;5021111;28;20350;-74
2022/02/20 09:08:11;;;;;;;14.03;4.83;;;;;;;;;;5025693;28;20381;-74
2022/02/20 09:10:36;;;;;;;12.83;4.73;;;;;;;;;;5021365;28;20025;-74
2022/02/20 09:13:02;;;;;;;13.47;4.80;;;;;;;;;;5024647;28;20477;-74
2022/02/20 09:15:27;;;;;;;10.77;4.73;;;;;;;;;;5023637;28;20172;-74
2022/02/20 09:17:52;;;;;;;9.33;4.47;;;;;;;;;;5034458;28;20082;-74
2022/02/20 09:20:18;;;;;;;10.33;4.63;;;;;;;;;;5039953;28;20501;-74
2022/02/20 09:22:43;;;;;;;9.60;4.03;;;;;;;;;;5039631;28;20374;-74
2022/02/20 09:25:09;;;;;;;10.13;4.47;;;;;;;;;;5030572;28;20035;-74
2022/02/20 09:27:35;;;;;;;12.43;5.13;;;;;;;;;;5025471;28;20083;-74
2022/02/20 09:30:00;;;;;;;11.67;5.40;;;;;;;;;;5039329;28;20432;-74
2022/02/20 09:32:27;;;;;;;10.37;4.57;;;;;;;;;;5040310;28;20120;-73
2022/02/20 09:34:52;;;;;;;9.97;4.50;;;;;;;;;;5039889;28;20193;-74
2022/02/20 09:37:17;;;;;;;7.70;3.80;;;;;;;;;;5023245;28;20024;-74
2022/02/20 09:39:43;;;;;;;9.97;4.27;;;;;;;;;;5030256;28;20563;-74
2022/02/20 09:42:08;;;;;;;10.50;4.13;;;;;;;;;;5020443;28;20060;-74
2022/02/20 09:44:33;;;;;;;10.23;4.90;;;;;;;;;;5029047;28;20033;-74
2022/02/20 09:46:59;;;;;;;9.13;4.27;;;;;;;;;;5027516;28;20024;-74
2022/02/20 09:49:28;;;;;;;6.97;4.10;;;;;;;;;;5030595;28;20028;-73
2022/02/20 09:51:54;;;;;;;9.40;4.03;;;;;;;;;;5025185;28;20017;-73
2022/02/20 09:54:19;;;;;;;9.33;5.03;;;;;;;;;;5030388;28;20040;-73
2022/02/20 09:56:44;;;;;;;10.93;4.40;;;;;;;;;;5033911;28;20246;-73
2022/02/20 09:59:09;;;;;;;8.87;4.53;;;;;;;;;;5026738;28;20079;-75
2022/02/20 10:01:35;;;;;;;9.27;4.37;;;;;;;;;;5020306;28;20037;-75
2022/02/20 10:04:10;;;;;;;10.00;3.90;;;;;;;;;;5024497;28;20409;-73
2022/02/20 10:06:35;;;;;;;7.00;3.67;;;;;;;;;;5020206;28;20018;-73
2022/02/20 10:09:00;;;;;;;11.87;4.20;;;;;;;;;;5023977;28;20018;-73
2022/02/20 10:11:27;;;;;;;6.70;3.37;;;;;;;;;;5019616;28;20582;-73
2022/02/20 10:13:53;;;;;;;8.00;4.20;;;;;;;;;;5028187;28;20103;-73
2022/02/20 10:16:20;;;;;;;9.53;4.23;;;;;;;;;;5023279;28;20259;-72
2022/02/20 10:18:46;;;;;;;8.83;3.60;;;;;;;;;;5024812;28;20084;-75
2022/02/20 10:21:15;;;;;;;7.17;3.73;;;;;;;;;;5023883;28;20440;-72
2022/02/20 10:23:41;;;;;;;8.33;4.30;;;;;;;;;;5024899;28;20025;-73
2022/02/20 10:26:10;;;;;;;8.70;4.27;;;;;;;;;;5019863;28;20025;-72
2022/02/20 10:28:35;;;;;;;8.30;3.67;;;;;;;;;;5030017;28;20238;-72
2022/02/20 10:31:00;;;;;;;8.40;3.57;;;;;;;;;;5020402;28;20018;-73
2022/02/20 10:33:27;;;;;;;7.37;3.30;;;;;;;;;;5026720;28;20051;-72
2022/02/20 10:35:54;;;;;;;6.70;3.37;;;;;;;;;;5019309;28;20424;-72
2022/02/20 10:38:23;;;;;;;8.30;2.90;;;;;;;;;;5029107;28;20174;-72
2022/02/20 10:40:56;;;;;;;7.73;3.00;;;;;;;;;;5019817;28;20048;-72
2022/02/20 10:43:25;;;;;;;5.27;2.17;;;;;;;;;;5027340;28;20304;-72
2022/02/20 10:45:50;;;;;;;6.93;2.67;;;;;;;;;;5025423;28;20201;-72
2022/02/20 10:48:17;;;;;;;5.03;2.67;;;;;;;;;;5021662;28;20048;-72
2022/02/20 10:50:42;;;;;;;7.27;2.70;;;;;;;;;;5025884;28;20025;-73
2022/02/20 10:53:12;;;;;;;10.47;2.27;;;;;;;;;;5024817;28;20027;-72
2022/02/20 10:55:37;;;;;;;5.97;1.50;;;;;;;;;;5030107;28;20025;-73
2022/02/20 10:58:29;;;;;;;4.80;1.83;;;;;;;;;;5037298;28;20116;-72
2022/02/20 11:00:55;;;;;;;7.13;2.58;;;;;;;;;;5036476;28;20033;-72
2022/02/20 11:03:24;;;;;;;8.67;2.57;;;;;;;;;;5023646;28;20040;-72
2022/02/20 11:05:51;;;;;;;5.23;1.77;;;;;;;;;;5018878;28;20204;-71
2022/02/20 11:08:18;;;;;;;6.73;2.10;;;;;;;;;;5022597;28;20033;-71
2022/02/20 11:10:43;;;;;;;4.70;1.83;;;;;;;;;;5018627;28;20146;-72
2022/02/20 11:13:09;;;;;;;6.90;2.00;;;;;;;;;;5035421;28;20219;-72
2022/02/20 11:15:34;;;;;;;5.43;1.73;;;;;;;;;;5026340;28;20134;-71
2022/02/20 11:18:00;;;;;;;3.63;1.67;;;;;;;;;;5019243;28;20428;-71
2022/02/20 11:20:28;;;;;;;7.03;2.00;;;;;;;;;;5018572;28;20026;-71
2022/02/20 11:22:55;;;;;;;9.57;1.87;;;;;;;;;;5033224;28;20056;-73
2022/02/20 11:25:21;;;;;;;5.43;2.00;;;;;;;;;;5031092;28;20021;-73
2022/02/20 11:27:46;;;;;;;9.13;2.00;;;;;;;;;;5035282;28;20078;-74
2022/02/20 11:30:12;;;;;;;7.87;1.80;;;;;;;;;;5025918;28;20490;-74
2022/02/20 11:32:38;;;;;;;8.83;2.50;;;;;;;;;;5032817;28;20241;-73
2022/02/20 11:35:09;;;;;;;10.50;2.43;;;;;;;;;;5034961;28;20036;-73
2022/02/20 11:37:46;;;;;;;8.07;2.43;;;;;;;;;;5038237;28;20029;-73
2022/02/20 11:40:14;;;;;;;10.80;2.47;;;;;;;;;;5024048;28;20048;-71
2022/02/20 11:42:59;;;;;;;9.10;2.00;;;;;;;;;;5021296;28;20429;-71
2022/02/20 11:45:25;;;;;;;8.37;2.33;;;;;;;;;;5029211;28;20418;-71
2022/02/20 11:48:17;;;;;;;10.47;2.87;;;;;;;;;;5031542;28;20025;-71
2022/02/20 11:50:42;;;;;;;8.07;2.33;;;;;;;;;;5022648;28;20033;-71
2022/02/20 11:53:09;;;;;;;11.00;2.47;;;;;;;;;;5022970;28;20035;-71
2022/02/20 11:55:38;;;;;;;13.30;2.43;;;;;;;;;;5024419;28;20493;-72
2022/02/20 11:58:23;;;;;;;12.87;2.50;;;;;;;;;;5030299;28;20239;-72
2022/02/20 12:00:54;;;;;;;14.40;2.50;;;;;;;;;;5025956;28;20694;-72
2022/02/20 12:03:23;;;;;;;14.48;2.78;;;;;;;;;;5023591;28;20039;-71
2022/02/20 12:06:07;;;;;;;7.83;2.07;;;;;;;;;;5025220;28;20045;-71
2022/02/20 12:08:34;;;;;;;8.73;2.63;;;;;;;;;;5027127;28;20481;-73
2022/02/20 12:11:16;;;;;;;7.90;2.07;;;;;;;;;;5030542;28;20602;-73
2022/02/20 12:13:45;;;;;;;12.27;2.50;;;;;;;;;;5026607;28;20032;-73
2022/02/20 12:16:19;;;;;;;15.10;3.10;;;;;;;;;;5031410;28;20524;-73
2022/02/20 12:19:03;;;;;;;16.77;2.73;;;;;;;;;;5020135;28;20021;-74
2022/02/20 12:21:30;;;;;;;7.83;2.93;;;;;;;;;;5026912;28;20505;-74
2022/02/20 12:23:57;;;;;;;12.70;3.40;;;;;;;;;;5030078;28;20013;-73
2022/02/20 12:26:41;;;;;;;10.57;2.43;;;;;;;;;;5017166;28;20100;-73
2022/02/20 12:29:13;;;;;;;16.10;3.77;;;;;;;;;;5024843;28;20201;-74
2022/02/20 12:31:57;;;;;;;12.03;2.60;;;;;;;;;;5024959;28;20155;-74
2022/02/20 12:34:41;;;;;;;11.80;3.53;;;;;;;;;;5023712;28;20139;-73
2022/02/20 12:37:06;;;;;;;11.13;3.80;;;;;;;;;;5022702;28;20028;-74
2022/02/20 12:39:32;;;;;;;16.27;2.87;;;;;;;;;;5027103;28;20017;-73
2022/02/20 12:42:01;;;;;;;14.43;3.50;;;;;;;;;;5030682;28;20100;-73
2022/02/20 12:44:26;;;;;;;15.10;3.17;;;;;;;;;;5025467;28;20502;-73
2022/02/20 12:46:52;;;;;;;19.80;3.13;;;;;;;;;;5026135;28;20018;-73
2022/02/20 12:49:17;;;;;;;24.80;3.40;;;;;;;;;;5031984;28;20032;-73
2022/02/20 12:51:43;;;;;;;12.63;3.70;;;;;;;;;;5020926;28;20087;-73
2022/02/20 12:54:09;;;;;;;21.47;2.90;;;;;;;;;;5022838;28;20548;-74
2022/02/20 12:56:34;;;;;;;11.40;3.20;;;;;;;;;;5021023;28;20161;-73
2022/02/20 12:59:03;;;;;;;10.57;2.63;;;;;;;;;;5027664;28;20064;-73
2022/02/20 13:01:28;;;;;;;6.73;3.10;;;;;;;;;;5021259;28;20030;-74
2022/02/20 13:03:54;;;;;;;14.10;3.00;;;;;;;;;;5029588;28;20371;-74
2022/02/20 13:06:20;;;;;;;8.50;2.60;;;;;;;;;;5024793;28;20053;-71
2022/02/20 13:08:46;;;;;;;15.33;3.33;;;;;;;;;;5023476;28;20423;-73
2022/02/20 13:11:22;;;;;;;13.07;3.30;;;;;;;;;;5021180;28;20021;-73
2022/02/20 13:13:47;;;;;;;9.83;2.57;;;;;;;;;;5022391;28;20025;-73
2022/02/20 13:16:14;;;;;;;15.47;3.23;;;;;;;;;;5029476;28;20055;-73
2022/02/20 13:18:39;;;;;;;11.70;3.03;;;;;;;;;;5030970;28;20101;-73
2022/02/20 13:21:06;;;;;;;13.13;2.70;;;;;;;;;;5024370;28;20121;-73
2022/02/20 13:23:34;;;;;;;14.07;3.70;;;;;;;;;;5039484;28;20025;-74
2022/02/20 13:26:02;;;;;;;17.60;3.47;;;;;;;;;;5022720;28;20250;-74
2022/02/20 13:28:29;;;;;;;14.87;3.03;;;;;;;;;;5029778;28;20017;-74
2022/02/20 13:30:58;;;;;;;11.07;3.17;;;;;;;;;;5034991;28;20017;-73
2022/02/20 13:33:28;;;;;;;16.27;3.77;;;;;;;;;;5032304;28;20532;-73
2022/02/20 13:35:54;;;;;;;10.13;3.00;;;;;;;;;;5021897;28;20022;-74
2022/02/20 13:38:23;;;;;;;13.07;3.13;;;;;;;;;;5028686;28;20043;-74
2022/02/20 13:40:50;;;;;;;9.80;2.33;;;;;;;;;;5020867;28;20028;-73
2022/02/20 13:43:15;;;;;;;14.33;2.27;;;;;;;;;;5032962;28;20043;-73
2022/02/20 13:45:55;;;;;;;9.57;3.03;;;;;;;;;;5025190;28;20104;-73
2022/02/20 13:48:23;;;;;;;13.87;2.97;;;;;;;;;;5029390;28;20025;-73
2022/02/20 13:50:48;;;;;;;19.00;2.93;;;;;;;;;;5029844;28;20013;-74
2022/02/20 13:53:13;;;;;;;7.43;2.90;;;;;;;;;;5031754;28;20013;-74
2022/02/20 13:55:39;;;;;;;10.47;2.33;;;;;;;;;;5034237;28;20535;-73
2022/02/20 13:58:12;;;;;;;9.67;1.93;;;;;;;;;;5023512;28;20056;-73
2022/02/20 14:00:37;;;;;;;13.23;2.07;;;;;;;;;;5036322;28;20566;-73
2022/02/20 14:03:02;;;;;;;9.20;2.40;;;;;;;;;;5035985;28;20172;-72
2022/02/20 14:05:28;;;;;;;13.63;2.53;;;;;;;;;;5030486;28;20175;-72
2022/02/20 14:08:03;;;;;;;5.60;2.20;;;;;;;;;;5035089;28;20078;-74
2022/02/20 14:10:28;;;;;;;5.80;1.60;;;;;;;;;;5030909;28;20036;-74
2022/02/20 14:12:54;;;;;;;7.20;1.70;;;;;;;;;;5034773;28;20029;-73
2022/02/20 14:15:29;;;;;;;4.63;2.17;;;;;;;;;;5026168;28;20032;-74
2022/02/20 14:17:57;;;;;;;10.87;2.40;;;;;;;;;;5030374;28;20025;-74
2022/02/20 14:20:26;;;;;;;9.77;2.03;;;;;;;;;;5021466;28;20087;-74
2022/02/20 14:22:51;;;;;;;7.77;2.10;;;;;;;;;;5028691;28;20548;-74
2022/02/20 14:25:19;;;;;;;7.10;1.70;;;;;;;;;;5026425;28;20026;-75
2022/02/20 14:27:48;;;;;;;10.27;2.47;;;;;;;;;;5027855;28;20302;-74
2022/02/20 14:30:22;;;;;;;10.90;2.20;;;;;;;;;;5025534;28;20233;-74
2022/02/20 14:32:54;;;;;;;7.40;1.93;;;;;;;;;;5026966;28;20033;-72
2022/02/20 14:35:21;;;;;;;5.67;2.10;;;;;;;;;;5020190;28;20490;-72